sensor_id;sensor_type;location;lat;lon;timestamp;P1;durP1;ratioP1;P2;durP2;ratioP2
78426;SDS011;67722;50.204;8.570;2023-03-12T00:03:13;2.07;;;1.30;;
78426;SDS011;67722;50.204;8.570;2023-03-12T00:05:39;0.90;;;0.85;;
78426;SDS011;67722;50.204;8.570;2023-03-12T00:08:07;4.65;;;1.10;;
78426;SDS011;67722;50.204;8.570;2023-03-12T00:10:33;1.50;;;0.90;;
78426;SDS011;67722;50.204;8.570;2023-03-12T00:12:59;1.08;;;0.93;;
78426;SDS011;67722;50.204;8.570;2023-03-12T00:17:50;5.60;;;1.80;;
78426;SDS011;67722;50.204;8.570;2023-03-12T00:20:16;1.95;;;1.08;;
78426;SDS011;67722;50.204;8.570;2023-03-12T00:22:41;1.60;;;1.38;;
78426;SDS011;67722;50.204;8.570;2023-03-12T00:27:35;1.13;;;0.77;;
78426;SDS011;67722;50.204;8.570;2023-03-12T00:30:00;2.15;;;1.13;;
78426;SDS011;67722;50.204;8.570;2023-03-12T00:32:26;4.05;;;1.63;;
78426;SDS011;67722;50.204;8.570;2023-03-12T00:34:52;2.80;;;0.90;;
78426;SDS011;67722;50.204;8.570;2023-03-12T00:37:18;3.10;;;1.77;;
78426;SDS011;67722;50.204;8.570;2023-03-12T00:39:43;12.25;;;5.78;;
78426;SDS011;67722;50.204;8.570;2023-03-12T00:42:09;6.43;;;4.03;;
78426;SDS011;67722;50.204;8.570;2023-03-12T00:44:34;3.03;;;2.43;;
78426;SDS011;67722;50.204;8.570;2023-03-12T00:49:25;2.63;;;1.97;;
78426;SDS011;67722;50.204;8.570;2023-03-12T00:51:50;2.97;;;2.05;;
78426;SDS011;67722;50.204;8.570;2023-03-12T00:54:15;3.92;;;1.67;;
78426;SDS011;67722;50.204;8.570;2023-03-12T00:56:41;3.95;;;2.20;;
78426;SDS011;67722;50.204;8.570;2023-03-12T00:59:06;3.08;;;1.63;;
78426;SDS011;67722;50.204;8.570;2023-03-12T01:01:32;2.63;;;1.50;;
78426;SDS011;67722;50.204;8.570;2023-03-12T01:03:57;3.97;;;1.57;;
78426;SDS011;67722;50.204;8.570;2023-03-12T01:06:23;7.35;;;2.58;;
78426;SDS011;67722;50.204;8.570;2023-03-12T01:08:49;10.95;;;4.15;;
78426;SDS011;67722;50.204;8.570;2023-03-12T01:11:15;2.65;;;1.58;;
78426;SDS011;67722;50.204;8.570;2023-03-12T01:13:42;2.95;;;1.25;;
78426;SDS011;67722;50.204;8.570;2023-03-12T01:16:07;5.63;;;1.73;;
78426;SDS011;67722;50.204;8.570;2023-03-12T01:18:33;8.55;;;4.53;;
78426;SDS011;67722;50.204;8.570;2023-03-12T01:20:58;8.30;;;3.33;;
78426;SDS011;67722;50.204;8.570;2023-03-12T01:23:24;4.30;;;2.70;;
78426;SDS011;67722;50.204;8.570;2023-03-12T01:25:50;3.25;;;1.90;;
78426;SDS011;67722;50.204;8.570;2023-03-12T01:28:16;8.52;;;2.03;;
78426;SDS011;67722;50.204;8.570;2023-03-12T01:30:42;3.53;;;1.80;;
78426;SDS011;67722;50.204;8.570;2023-03-12T01:33:07;12.27;;;5.35;;
78426;SDS011;67722;50.204;8.570;2023-03-12T01:35:36;13.13;;;8.23;;
78426;SDS011;67722;50.204;8.570;2023-03-12T01:38:03;19.00;;;10.95;;
78426;SDS011;67722;50.204;8.570;2023-03-12T01:40:29;21.58;;;10.13;;
78426;SDS011;67722;50.204;8.570;2023-03-12T01:42:57;10.85;;;6.07;;
78426;SDS011;67722;50.204;8.570;2023-03-12T01:48:26;14.43;;;5.40;;
78426;SDS011;67722;50.204;8.570;2023-03-12T01:50:54;7.57;;;3.85;;
78426;SDS011;67722;50.204;8.570;2023-03-12T01:53:20;9.52;;;3.78;;
78426;SDS011;67722;50.204;8.570;2023-03-12T01:55:45;9.43;;;3.63;;
78426;SDS011;67722;50.204;8.570;2023-03-12T01:58:11;5.30;;;2.57;;
78426;SDS011;67722;50.204;8.570;2023-03-12T02:00:36;3.43;;;2.00;;
78426;SDS011;67722;50.204;8.570;2023-03-12T02:03:03;3.87;;;2.43;;
78426;SDS011;67722;50.204;8.570;2023-03-12T02:05:32;6.15;;;2.22;;
78426;SDS011;67722;50.204;8.570;2023-03-12T02:08:04;6.75;;;2.55;;
78426;SDS011;67722;50.204;8.570;2023-03-12T02:10:30;6.35;;;2.65;;
78426;SDS011;67722;50.204;8.570;2023-03-12T02:12:55;6.37;;;4.77;;
78426;SDS011;67722;50.204;8.570;2023-03-12T02:15:21;10.30;;;4.65;;
78426;SDS011;67722;50.204;8.570;2023-03-12T02:17:47;1.88;;;0.85;;
78426;SDS011;67722;50.204;8.570;2023-03-12T02:20:22;4.63;;;1.57;;
78426;SDS011;67722;50.204;8.570;2023-03-12T02:25:50;3.35;;;2.28;;
78426;SDS011;67722;50.204;8.570;2023-03-12T02:28:17;5.63;;;2.60;;
78426;SDS011;67722;50.204;8.570;2023-03-12T02:30:45;5.53;;;2.97;;
78426;SDS011;67722;50.204;8.570;2023-03-12T02:33:11;2.58;;;2.08;;
78426;SDS011;67722;50.204;8.570;2023-03-12T02:35:39;2.13;;;1.13;;
78426;SDS011;67722;50.204;8.570;2023-03-12T02:38:24;3.17;;;1.67;;
78426;SDS011;67722;50.204;8.570;2023-03-12T02:41:09;2.08;;;1.75;;
78426;SDS011;67722;50.204;8.570;2023-03-12T02:44:13;4.95;;;1.80;;
78426;SDS011;67722;50.204;8.570;2023-03-12T02:46:44;7.07;;;1.63;;
78426;SDS011;67722;50.204;8.570;2023-03-12T02:49:11;1.98;;;1.80;;
78426;SDS011;67722;50.204;8.570;2023-03-12T02:51:37;5.78;;;2.10;;
78426;SDS011;67722;50.204;8.570;2023-03-12T02:54:03;2.05;;;1.52;;
78426;SDS011;67722;50.204;8.570;2023-03-12T02:56:29;6.07;;;2.20;;
78426;SDS011;67722;50.204;8.570;2023-03-12T02:58:54;4.28;;;2.03;;
78426;SDS011;67722;50.204;8.570;2023-03-12T03:01:20;4.83;;;2.30;;
78426;SDS011;67722;50.204;8.570;2023-03-12T03:06:11;3.42;;;2.33;;
78426;SDS011;67722;50.204;8.570;2023-03-12T03:08:37;4.28;;;2.28;;
78426;SDS011;67722;50.204;8.570;2023-03-12T03:11:02;3.60;;;2.00;;
78426;SDS011;67722;50.204;8.570;2023-03-12T03:13:28;4.57;;;1.20;;
78426;SDS011;67722;50.204;8.570;2023-03-12T03:15:54;6.18;;;2.17;;
78426;SDS011;67722;50.204;8.570;2023-03-12T03:18:21;5.78;;;2.72;;
78426;SDS011;67722;50.204;8.570;2023-03-12T03:20:53;3.40;;;2.50;;
78426;SDS011;67722;50.204;8.570;2023-03-12T03:25:45;2.33;;;2.13;;
78426;SDS011;67722;50.204;8.570;2023-03-12T03:28:10;5.30;;;2.37;;
78426;SDS011;67722;50.204;8.570;2023-03-12T03:33:02;4.80;;;2.60;;
78426;SDS011;67722;50.204;8.570;2023-03-12T03:35:28;4.97;;;1.88;;
78426;SDS011;67722;50.204;8.570;2023-03-12T03:37:53;5.03;;;2.57;;
78426;SDS011;67722;50.204;8.570;2023-03-12T03:42:44;5.23;;;2.10;;
78426;SDS011;67722;50.204;8.570;2023-03-12T03:45:09;4.33;;;2.37;;
78426;SDS011;67722;50.204;8.570;2023-03-12T03:50:00;3.40;;;3.10;;
78426;SDS011;67722;50.204;8.570;2023-03-12T03:52:25;3.10;;;2.47;;
78426;SDS011;67722;50.204;8.570;2023-03-12T03:54:51;3.97;;;3.00;;
78426;SDS011;67722;50.204;8.570;2023-03-12T03:57:17;3.65;;;2.28;;
78426;SDS011;67722;50.204;8.570;2023-03-12T03:59:43;5.97;;;3.37;;
78426;SDS011;67722;50.204;8.570;2023-03-12T04:02:08;4.73;;;3.03;;
78426;SDS011;67722;50.204;8.570;2023-03-12T04:04:33;3.37;;;2.90;;
78426;SDS011;67722;50.204;8.570;2023-03-12T04:06:59;4.43;;;3.17;;
78426;SDS011;67722;50.204;8.570;2023-03-12T04:09:24;3.75;;;3.28;;
78426;SDS011;67722;50.204;8.570;2023-03-12T04:11:49;10.07;;;3.13;;
78426;SDS011;67722;50.204;8.570;2023-03-12T04:14:15;4.80;;;2.60;;
78426;SDS011;67722;50.204;8.570;2023-03-12T04:16:40;4.60;;;3.50;;
78426;SDS011;67722;50.204;8.570;2023-03-12T04:19:05;3.90;;;3.07;;
78426;SDS011;67722;50.204;8.570;2023-03-12T04:21:31;3.87;;;2.77;;
78426;SDS011;67722;50.204;8.570;2023-03-12T04:26:21;5.87;;;3.50;;
78426;SDS011;67722;50.204;8.570;2023-03-12T04:28:47;9.03;;;3.90;;
78426;SDS011;67722;50.204;8.570;2023-03-12T04:31:12;8.27;;;3.70;;
78426;SDS011;67722;50.204;8.570;2023-03-12T04:33:38;5.25;;;2.58;;
78426;SDS011;67722;50.204;8.570;2023-03-12T04:36:04;4.95;;;3.13;;
78426;SDS011;67722;50.204;8.570;2023-03-12T04:38:30;5.45;;;3.38;;
78426;SDS011;67722;50.204;8.570;2023-03-12T04:40:56;4.88;;;3.97;;
78426;SDS011;67722;50.204;8.570;2023-03-12T04:43:26;4.75;;;3.13;;
78426;SDS011;67722;50.204;8.570;2023-03-12T04:45:52;3.88;;;2.88;;
78426;SDS011;67722;50.204;8.570;2023-03-12T04:48:18;4.60;;;3.25;;
78426;SDS011;67722;50.204;8.570;2023-03-12T04:50:43;4.33;;;3.30;;
78426;SDS011;67722;50.204;8.570;2023-03-12T04:53:08;4.47;;;2.60;;
78426;SDS011;67722;50.204;8.570;2023-03-12T04:55:34;5.20;;;2.97;;
78426;SDS011;67722;50.204;8.570;2023-03-12T04:57:59;5.63;;;3.15;;
78426;SDS011;67722;50.204;8.570;2023-03-12T05:00:25;7.43;;;3.93;;
78426;SDS011;67722;50.204;8.570;2023-03-12T05:02:51;6.22;;;3.85;;
78426;SDS011;67722;50.204;8.570;2023-03-12T05:05:17;5.85;;;3.38;;
78426;SDS011;67722;50.204;8.570;2023-03-12T05:07:42;4.63;;;4.20;;
78426;SDS011;67722;50.204;8.570;2023-03-12T05:10:07;3.70;;;2.73;;
78426;SDS011;67722;50.204;8.570;2023-03-12T05:12:33;4.43;;;3.05;;
78426;SDS011;67722;50.204;8.570;2023-03-12T05:14:59;6.55;;;3.60;;
78426;SDS011;67722;50.204;8.570;2023-03-12T05:17:24;6.67;;;3.77;;
78426;SDS011;67722;50.204;8.570;2023-03-12T05:19:49;5.97;;;2.30;;
78426;SDS011;67722;50.204;8.570;2023-03-12T05:22:14;4.77;;;3.57;;
78426;SDS011;67722;50.204;8.570;2023-03-12T05:24:40;4.90;;;3.15;;
78426;SDS011;67722;50.204;8.570;2023-03-12T05:27:05;5.53;;;2.90;;
78426;SDS011;67722;50.204;8.570;2023-03-12T05:29:32;5.85;;;4.18;;
78426;SDS011;67722;50.204;8.570;2023-03-12T05:31:59;6.68;;;4.63;;
78426;SDS011;67722;50.204;8.570;2023-03-12T05:34:25;7.65;;;4.97;;
78426;SDS011;67722;50.204;8.570;2023-03-12T05:36:52;5.50;;;4.43;;
78426;SDS011;67722;50.204;8.570;2023-03-12T05:39:18;6.53;;;4.03;;
78426;SDS011;67722;50.204;8.570;2023-03-12T05:41:43;8.00;;;4.72;;
78426;SDS011;67722;50.204;8.570;2023-03-12T05:44:10;9.93;;;5.43;;
78426;SDS011;67722;50.204;8.570;2023-03-12T05:46:37;10.45;;;4.28;;
78426;SDS011;67722;50.204;8.570;2023-03-12T05:49:02;7.13;;;4.77;;
78426;SDS011;67722;50.204;8.570;2023-03-12T05:51:28;7.53;;;5.43;;
78426;SDS011;67722;50.204;8.570;2023-03-12T05:53:53;8.23;;;4.07;;
78426;SDS011;67722;50.204;8.570;2023-03-12T05:56:18;6.07;;;5.00;;
78426;SDS011;67722;50.204;8.570;2023-03-12T05:58:44;7.90;;;4.87;;
78426;SDS011;67722;50.204;8.570;2023-03-12T06:01:13;5.88;;;4.22;;
78426;SDS011;67722;50.204;8.570;2023-03-12T06:03:40;6.72;;;4.75;;
78426;SDS011;67722;50.204;8.570;2023-03-12T06:06:06;9.00;;;4.50;;
78426;SDS011;67722;50.204;8.570;2023-03-12T06:08:32;7.57;;;4.50;;
78426;SDS011;67722;50.204;8.570;2023-03-12T06:10:57;6.00;;;4.60;;
78426;SDS011;67722;50.204;8.570;2023-03-12T06:13:23;6.32;;;4.30;;
78426;SDS011;67722;50.204;8.570;2023-03-12T06:15:49;7.70;;;4.68;;
78426;SDS011;67722;50.204;8.570;2023-03-12T06:18:14;6.53;;;3.90;;
78426;SDS011;67722;50.204;8.570;2023-03-12T06:20:40;7.72;;;3.78;;
78426;SDS011;67722;50.204;8.570;2023-03-12T06:23:05;5.38;;;4.35;;
78426;SDS011;67722;50.204;8.570;2023-03-12T06:25:31;12.03;;;4.50;;
78426;SDS011;67722;50.204;8.570;2023-03-12T06:27:56;5.35;;;3.90;;
78426;SDS011;67722;50.204;8.570;2023-03-12T06:30:21;6.70;;;4.97;;
78426;SDS011;67722;50.204;8.570;2023-03-12T06:32:47;5.45;;;4.15;;
78426;SDS011;67722;50.204;8.570;2023-03-12T06:35:12;5.50;;;4.03;;
78426;SDS011;67722;50.204;8.570;2023-03-12T06:37:37;4.05;;;3.65;;
78426;SDS011;67722;50.204;8.570;2023-03-12T06:40:03;9.95;;;4.32;;
78426;SDS011;67722;50.204;8.570;2023-03-12T06:42:29;7.95;;;4.13;;
78426;SDS011;67722;50.204;8.570;2023-03-12T06:44:54;5.80;;;4.07;;
78426;SDS011;67722;50.204;8.570;2023-03-12T06:47:19;4.73;;;4.30;;
78426;SDS011;67722;50.204;8.570;2023-03-12T06:49:45;5.82;;;3.38;;
78426;SDS011;67722;50.204;8.570;2023-03-12T06:52:10;6.27;;;4.73;;
78426;SDS011;67722;50.204;8.570;2023-03-12T06:54:36;8.18;;;4.13;;
78426;SDS011;67722;50.204;8.570;2023-03-12T06:57:01;7.03;;;5.13;;
78426;SDS011;67722;50.204;8.570;2023-03-12T06:59:26;7.40;;;4.73;;
78426;SDS011;67722;50.204;8.570;2023-03-12T07:01:52;7.28;;;4.47;;
78426;SDS011;67722;50.204;8.570;2023-03-12T07:04:17;7.53;;;4.40;;
78426;SDS011;67722;50.204;8.570;2023-03-12T07:06:43;7.13;;;4.67;;
78426;SDS011;67722;50.204;8.570;2023-03-12T07:09:08;7.00;;;4.38;;
78426;SDS011;67722;50.204;8.570;2023-03-12T07:11:34;9.23;;;4.30;;
78426;SDS011;67722;50.204;8.570;2023-03-12T07:13:59;6.40;;;2.88;;
78426;SDS011;67722;50.204;8.570;2023-03-12T07:16:25;6.60;;;3.65;;
78426;SDS011;67722;50.204;8.570;2023-03-12T07:18:51;4.35;;;3.22;;
78426;SDS011;67722;50.204;8.570;2023-03-12T07:21:16;8.80;;;3.80;;
78426;SDS011;67722;50.204;8.570;2023-03-12T07:23:47;5.68;;;3.78;;
78426;SDS011;67722;50.204;8.570;2023-03-12T07:26:13;7.50;;;3.63;;
78426;SDS011;67722;50.204;8.570;2023-03-12T07:28:38;9.27;;;3.63;;
78426;SDS011;67722;50.204;8.570;2023-03-12T07:31:04;6.18;;;4.03;;
78426;SDS011;67722;50.204;8.570;2023-03-12T07:33:29;8.27;;;4.05;;
78426;SDS011;67722;50.204;8.570;2023-03-12T07:35:55;6.32;;;4.05;;
78426;SDS011;67722;50.204;8.570;2023-03-12T07:38:20;10.07;;;4.07;;
78426;SDS011;67722;50.204;8.570;2023-03-12T07:40:49;6.93;;;4.67;;
78426;SDS011;67722;50.204;8.570;2023-03-12T07:43:16;12.13;;;4.90;;
78426;SDS011;67722;50.204;8.570;2023-03-12T07:45:41;6.18;;;3.95;;
78426;SDS011;67722;50.204;8.570;2023-03-12T07:48:06;7.03;;;3.90;;
78426;SDS011;67722;50.204;8.570;2023-03-12T07:50:32;4.47;;;3.40;;
78426;SDS011;67722;50.204;8.570;2023-03-12T07:52:58;10.13;;;4.75;;
78426;SDS011;67722;50.204;8.570;2023-03-12T07:55:23;15.10;;;5.00;;
78426;SDS011;67722;50.204;8.570;2023-03-12T07:57:48;6.00;;;4.13;;
78426;SDS011;67722;50.204;8.570;2023-03-12T08:00:14;11.38;;;5.65;;
78426;SDS011;67722;50.204;8.570;2023-03-12T08:02:41;6.30;;;4.22;;
78426;SDS011;67722;50.204;8.570;2023-03-12T08:05:06;5.75;;;4.80;;
78426;SDS011;67722;50.204;8.570;2023-03-12T08:07:32;10.57;;;5.32;;
78426;SDS011;67722;50.204;8.570;2023-03-12T08:09:59;5.85;;;4.95;;
78426;SDS011;67722;50.204;8.570;2023-03-12T08:12:25;6.30;;;5.43;;
78426;SDS011;67722;50.204;8.570;2023-03-12T08:14:50;7.95;;;5.13;;
78426;SDS011;67722;50.204;8.570;2023-03-12T08:17:16;7.10;;;5.37;;
78426;SDS011;67722;50.204;8.570;2023-03-12T08:19:41;14.05;;;6.18;;
78426;SDS011;67722;50.204;8.570;2023-03-12T08:22:07;8.87;;;5.57;;
78426;SDS011;67722;50.204;8.570;2023-03-12T08:24:32;12.50;;;5.95;;
78426;SDS011;67722;50.204;8.570;2023-03-12T08:26:58;12.40;;;5.78;;
78426;SDS011;67722;50.204;8.570;2023-03-12T08:29:24;10.68;;;4.60;;
78426;SDS011;67722;50.204;8.570;2023-03-12T08:31:49;10.10;;;5.60;;
78426;SDS011;67722;50.204;8.570;2023-03-12T08:34:14;7.25;;;5.55;;
78426;SDS011;67722;50.204;8.570;2023-03-12T08:36:40;10.87;;;4.60;;
78426;SDS011;67722;50.204;8.570;2023-03-12T08:39:05;6.80;;;5.13;;
78426;SDS011;67722;50.204;8.570;2023-03-12T08:41:30;11.20;;;4.77;;
78426;SDS011;67722;50.204;8.570;2023-03-12T08:43:56;9.23;;;5.65;;
78426;SDS011;67722;50.204;8.570;2023-03-12T08:46:21;8.17;;;6.13;;
78426;SDS011;67722;50.204;8.570;2023-03-12T08:48:46;10.70;;;7.23;;
78426;SDS011;67722;50.204;8.570;2023-03-12T08:51:12;10.10;;;7.57;;
78426;SDS011;67722;50.204;8.570;2023-03-12T08:53:37;8.80;;;5.70;;
78426;SDS011;67722;50.204;8.570;2023-03-12T08:56:03;9.88;;;6.05;;
78426;SDS011;67722;50.204;8.570;2023-03-12T08:58:30;8.93;;;6.18;;
78426;SDS011;67722;50.204;8.570;2023-03-12T09:00:56;11.45;;;5.60;;
78426;SDS011;67722;50.204;8.570;2023-03-12T09:03:21;10.10;;;5.97;;
78426;SDS011;67722;50.204;8.570;2023-03-12T09:05:47;10.60;;;6.50;;
78426;SDS011;67722;50.204;8.570;2023-03-12T09:08:13;8.20;;;6.20;;
78426;SDS011;67722;50.204;8.570;2023-03-12T09:10:39;9.55;;;6.43;;
78426;SDS011;67722;50.204;8.570;2023-03-12T09:13:05;10.07;;;5.57;;
78426;SDS011;67722;50.204;8.570;2023-03-12T09:15:31;9.82;;;5.55;;
78426;SDS011;67722;50.204;8.570;2023-03-12T09:17:56;8.27;;;5.35;;
78426;SDS011;67722;50.204;8.570;2023-03-12T09:20:22;8.77;;;5.97;;
78426;SDS011;67722;50.204;8.570;2023-03-12T09:22:48;8.77;;;6.45;;
78426;SDS011;67722;50.204;8.570;2023-03-12T09:25:13;9.10;;;6.20;;
78426;SDS011;67722;50.204;8.570;2023-03-12T09:27:43;10.90;;;7.20;;
78426;SDS011;67722;50.204;8.570;2023-03-12T09:30:14;13.48;;;7.05;;
78426;SDS011;67722;50.204;8.570;2023-03-12T09:32:42;11.40;;;6.93;;
78426;SDS011;67722;50.204;8.570;2023-03-12T09:35:10;17.05;;;7.60;;
78426;SDS011;67722;50.204;8.570;2023-03-12T09:37:36;10.50;;;6.82;;
78426;SDS011;67722;50.204;8.570;2023-03-12T09:40:02;11.70;;;6.90;;
78426;SDS011;67722;50.204;8.570;2023-03-12T09:45:21;11.15;;;7.53;;
78426;SDS011;67722;50.204;8.570;2023-03-12T09:47:52;13.65;;;8.32;;
78426;SDS011;67722;50.204;8.570;2023-03-12T09:50:20;9.43;;;6.13;;
78426;SDS011;67722;50.204;8.570;2023-03-12T09:52:53;16.27;;;8.07;;
78426;SDS011;67722;50.204;8.570;2023-03-12T09:55:20;16.52;;;6.97;;
78426;SDS011;67722;50.204;8.570;2023-03-12T09:57:48;14.43;;;9.20;;
78426;SDS011;67722;50.204;8.570;2023-03-12T10:10:49;15.73;;;8.57;;
78426;SDS011;67722;50.204;8.570;2023-03-12T10:13:20;14.40;;;7.32;;
78426;SDS011;67722;50.204;8.570;2023-03-12T10:18:55;15.98;;;7.50;;
78426;SDS011;67722;50.204;8.570;2023-03-12T10:21:29;12.20;;;7.10;;
78426;SDS011;67722;50.204;8.570;2023-03-12T10:26:38;16.25;;;9.63;;
78426;SDS011;67722;50.204;8.570;2023-03-12T10:29:09;17.63;;;10.35;;
78426;SDS011;67722;50.204;8.570;2023-03-12T10:31:52;15.70;;;8.57;;
78426;SDS011;67722;50.204;8.570;2023-03-12T10:37:17;17.50;;;9.38;;
78426;SDS011;67722;50.204;8.570;2023-03-12T10:39:47;19.02;;;9.55;;
78426;SDS011;67722;50.204;8.570;2023-03-12T10:42:13;15.45;;;8.52;;
78426;SDS011;67722;50.204;8.570;2023-03-12T10:44:41;13.05;;;8.65;;
78426;SDS011;67722;50.204;8.570;2023-03-12T10:49:43;16.73;;;8.35;;
78426;SDS011;67722;50.204;8.570;2023-03-12T10:52:18;18.38;;;10.02;;
78426;SDS011;67722;50.204;8.570;2023-03-12T10:54:46;11.70;;;6.95;;
78426;SDS011;67722;50.204;8.570;2023-03-12T10:57:13;14.45;;;8.73;;
78426;SDS011;67722;50.204;8.570;2023-03-12T10:59:40;13.80;;;8.27;;
78426;SDS011;67722;50.204;8.570;2023-03-12T11:05:18;14.35;;;8.77;;
78426;SDS011;67722;50.204;8.570;2023-03-12T11:07:44;17.27;;;8.55;;
78426;SDS011;67722;50.204;8.570;2023-03-12T11:12:35;16.17;;;10.87;;
78426;SDS011;67722;50.204;8.570;2023-03-12T11:17:50;17.83;;;9.50;;
78426;SDS011;67722;50.204;8.570;2023-03-12T11:22:51;19.70;;;11.63;;
78426;SDS011;67722;50.204;8.570;2023-03-12T11:25:21;12.48;;;8.27;;
78426;SDS011;67722;50.204;8.570;2023-03-12T11:27:50;14.82;;;8.52;;
78426;SDS011;67722;50.204;8.570;2023-03-12T11:30:22;16.67;;;9.55;;
78426;SDS011;67722;50.204;8.570;2023-03-12T11:32:51;14.30;;;8.73;;
78426;SDS011;67722;50.204;8.570;2023-03-12T11:35:18;14.63;;;9.48;;
78426;SDS011;67722;50.204;8.570;2023-03-12T11:52:01;13.93;;;9.13;;
78426;SDS011;67722;50.204;8.570;2023-03-12T12:07:44;11.07;;;7.50;;
78426;SDS011;67722;50.204;8.570;2023-03-12T12:10:22;11.77;;;6.93;;
78426;SDS011;67722;50.204;8.570;2023-03-12T12:18:26;11.68;;;7.70;;
78426;SDS011;67722;50.204;8.570;2023-03-12T12:29:42;12.15;;;8.15;;
78426;SDS011;67722;50.204;8.570;2023-03-12T12:32:15;12.55;;;8.38;;
78426;SDS011;67722;50.204;8.570;2023-03-12T12:42:51;13.65;;;7.60;;
78426;SDS011;67722;50.204;8.570;2023-03-12T12:45:44;9.43;;;6.40;;
78426;SDS011;67722;50.204;8.570;2023-03-12T12:48:13;12.73;;;8.50;;
78426;SDS011;67722;50.204;8.570;2023-03-12T12:50:42;12.05;;;8.85;;
78426;SDS011;67722;50.204;8.570;2023-03-12T12:53:21;13.65;;;9.27;;
78426;SDS011;67722;50.204;8.570;2023-03-12T13:01:07;16.85;;;10.07;;
78426;SDS011;67722;50.204;8.570;2023-03-12T13:03:33;14.23;;;9.80;;
78426;SDS011;67722;50.204;8.570;2023-03-12T13:06:02;14.30;;;9.52;;
78426;SDS011;67722;50.204;8.570;2023-03-12T13:13:37;14.05;;;9.10;;
78426;SDS011;67722;50.204;8.570;2023-03-12T13:19:21;15.65;;;10.02;;
78426;SDS011;67722;50.204;8.570;2023-03-12T13:24:22;12.50;;;7.40;;
78426;SDS011;67722;50.204;8.570;2023-03-12T13:29:35;16.50;;;10.05;;
78426;SDS011;67722;50.204;8.570;2023-03-12T13:32:08;10.50;;;8.20;;
78426;SDS011;67722;50.204;8.570;2023-03-12T13:34:55;15.43;;;10.68;;
78426;SDS011;67722;50.204;8.570;2023-03-12T13:38:09;15.32;;;10.45;;
78426;SDS011;67722;50.204;8.570;2023-03-12T13:40:37;15.90;;;10.20;;
78426;SDS011;67722;50.204;8.570;2023-03-12T13:43:29;15.27;;;9.30;;
78426;SDS011;67722;50.204;8.570;2023-03-12T13:46:00;12.07;;;8.48;;
78426;SDS011;67722;50.204;8.570;2023-03-12T13:48:29;16.40;;;9.68;;
78426;SDS011;67722;50.204;8.570;2023-03-12T13:50:56;14.43;;;8.95;;
78426;SDS011;67722;50.204;8.570;2023-03-12T13:53:31;15.50;;;10.38;;
78426;SDS011;67722;50.204;8.570;2023-03-12T13:56:03;13.20;;;10.10;;
78426;SDS011;67722;50.204;8.570;2023-03-12T13:58:31;13.52;;;8.98;;
78426;SDS011;67722;50.204;8.570;2023-03-12T14:01:05;15.68;;;10.13;;
78426;SDS011;67722;50.204;8.570;2023-03-12T14:03:38;16.08;;;9.38;;
78426;SDS011;67722;50.204;8.570;2023-03-12T14:06:10;15.98;;;9.82;;
78426;SDS011;67722;50.204;8.570;2023-03-12T14:16:45;17.60;;;11.43;;
78426;SDS011;67722;50.204;8.570;2023-03-12T14:19:13;12.68;;;9.43;;
78426;SDS011;67722;50.204;8.570;2023-03-12T14:21:40;14.68;;;10.30;;
78426;SDS011;67722;50.204;8.570;2023-03-12T14:24:19;17.40;;;10.63;;
78426;SDS011;67722;50.204;8.570;2023-03-12T14:26:47;16.67;;;10.48;;
78426;SDS011;67722;50.204;8.570;2023-03-12T14:31:47;17.73;;;9.00;;
78426;SDS011;67722;50.204;8.570;2023-03-12T14:39:44;18.20;;;9.10;;
78426;SDS011;67722;50.204;8.570;2023-03-12T14:42:10;22.08;;;13.18;;
78426;SDS011;67722;50.204;8.570;2023-03-12T14:44:53;17.13;;;10.55;;
78426;SDS011;67722;50.204;8.570;2023-03-12T14:47:21;17.70;;;10.45;;
78426;SDS011;67722;50.204;8.570;2023-03-12T14:49:46;16.55;;;11.10;;
78426;SDS011;67722;50.204;8.570;2023-03-12T14:52:22;28.55;;;15.52;;
78426;SDS011;67722;50.204;8.570;2023-03-12T14:54:57;17.10;;;9.95;;
78426;SDS011;67722;50.204;8.570;2023-03-12T14:57:23;14.18;;;9.95;;
78426;SDS011;67722;50.204;8.570;2023-03-12T14:59:59;17.75;;;9.95;;
78426;SDS011;67722;50.204;8.570;2023-03-12T15:02:25;12.73;;;9.00;;
78426;SDS011;67722;50.204;8.570;2023-03-12T15:04:53;15.63;;;9.90;;
78426;SDS011;67722;50.204;8.570;2023-03-12T15:07:33;15.52;;;10.07;;
78426;SDS011;67722;50.204;8.570;2023-03-12T15:10:00;13.65;;;8.98;;
78426;SDS011;67722;50.204;8.570;2023-03-12T15:12:28;14.35;;;8.85;;
78426;SDS011;67722;50.204;8.570;2023-03-12T15:15:02;11.88;;;7.55;;
78426;SDS011;67722;50.204;8.570;2023-03-12T15:17:51;10.93;;;7.93;;
78426;SDS011;67722;50.204;8.570;2023-03-12T15:20:17;13.23;;;8.98;;
78426;SDS011;67722;50.204;8.570;2023-03-12T15:22:43;11.68;;;8.15;;
78426;SDS011;67722;50.204;8.570;2023-03-12T15:25:25;11.75;;;7.00;;
78426;SDS011;67722;50.204;8.570;2023-03-12T15:30:30;12.18;;;8.80;;
78426;SDS011;67722;50.204;8.570;2023-03-12T15:33:10;11.23;;;7.47;;
78426;SDS011;67722;50.204;8.570;2023-03-12T15:35:37;11.95;;;7.95;;
78426;SDS011;67722;50.204;8.570;2023-03-12T15:38:11;11.15;;;8.02;;
78426;SDS011;67722;50.204;8.570;2023-03-12T15:40:38;10.80;;;8.27;;
78426;SDS011;67722;50.204;8.570;2023-03-12T15:43:03;11.68;;;7.18;;
78426;SDS011;67722;50.204;8.570;2023-03-12T15:45:35;13.07;;;8.50;;
78426;SDS011;67722;50.204;8.570;2023-03-12T15:48:02;14.43;;;6.68;;
78426;SDS011;67722;50.204;8.570;2023-03-12T15:50:30;16.13;;;8.38;;
78426;SDS011;67722;50.204;8.570;2023-03-12T15:52:59;12.55;;;7.43;;
78426;SDS011;67722;50.204;8.570;2023-03-12T15:55:26;14.20;;;7.65;;
78426;SDS011;67722;50.204;8.570;2023-03-12T15:57:54;11.40;;;7.65;;
78426;SDS011;67722;50.204;8.570;2023-03-12T16:02:50;11.52;;;8.05;;
78426;SDS011;67722;50.204;8.570;2023-03-12T16:05:18;13.68;;;8.30;;
78426;SDS011;67722;50.204;8.570;2023-03-12T16:07:45;11.80;;;7.75;;
78426;SDS011;67722;50.204;8.570;2023-03-12T16:10:12;13.80;;;7.88;;
78426;SDS011;67722;50.204;8.570;2023-03-12T16:12:40;14.27;;;7.43;;
78426;SDS011;67722;50.204;8.570;2023-03-12T16:15:06;9.60;;;7.57;;
78426;SDS011;67722;50.204;8.570;2023-03-12T16:17:36;11.70;;;7.55;;
78426;SDS011;67722;50.204;8.570;2023-03-12T16:20:01;10.10;;;7.13;;
78426;SDS011;67722;50.204;8.570;2023-03-12T16:22:27;14.43;;;8.45;;
78426;SDS011;67722;50.204;8.570;2023-03-12T16:24:53;12.75;;;8.27;;
78426;SDS011;67722;50.204;8.570;2023-03-12T16:27:18;12.73;;;7.47;;
78426;SDS011;67722;50.204;8.570;2023-03-12T16:29:43;13.20;;;7.93;;
78426;SDS011;67722;50.204;8.570;2023-03-12T16:32:15;13.05;;;7.90;;
78426;SDS011;67722;50.204;8.570;2023-03-12T16:34:41;13.13;;;8.23;;
78426;SDS011;67722;50.204;8.570;2023-03-12T16:37:10;12.60;;;8.40;;
78426;SDS011;67722;50.204;8.570;2023-03-12T16:39:36;12.25;;;5.90;;
78426;SDS011;67722;50.204;8.570;2023-03-12T16:42:01;13.45;;;7.07;;
78426;SDS011;67722;50.204;8.570;2023-03-12T16:44:28;13.75;;;6.00;;
78426;SDS011;67722;50.204;8.570;2023-03-12T16:46:55;11.57;;;7.32;;
78426;SDS011;67722;50.204;8.570;2023-03-12T16:49:21;10.80;;;6.77;;
78426;SDS011;67722;50.204;8.570;2023-03-12T16:51:46;13.15;;;6.78;;
78426;SDS011;67722;50.204;8.570;2023-03-12T16:54:12;9.93;;;6.90;;
78426;SDS011;67722;50.204;8.570;2023-03-12T16:56:37;10.68;;;7.32;;
78426;SDS011;67722;50.204;8.570;2023-03-12T16:59:06;8.73;;;5.13;;
78426;SDS011;67722;50.204;8.570;2023-03-12T17:02:02;13.07;;;6.93;;
78426;SDS011;67722;50.204;8.570;2023-03-12T17:04:41;11.55;;;5.97;;
78426;SDS011;67722;50.204;8.570;2023-03-12T17:07:06;9.13;;;5.05;;
78426;SDS011;67722;50.204;8.570;2023-03-12T17:09:32;9.73;;;5.25;;
78426;SDS011;67722;50.204;8.570;2023-03-12T17:11:58;12.35;;;5.72;;
78426;SDS011;67722;50.204;8.570;2023-03-12T17:14:24;8.25;;;4.70;;
78426;SDS011;67722;50.204;8.570;2023-03-12T17:16:49;9.63;;;5.13;;
78426;SDS011;67722;50.204;8.570;2023-03-12T17:19:15;11.43;;;5.97;;